64035 station(s) have been heard in the last 24 hours.

<< 623 624 625 626 627 628 629 >>
  Name/Id Latest heard Comment/Other Map
Symbol DF0HR-12 1788369328 BSG Amateurfunk im hr#Hamnet Gateway/B=100/N4 Map
Symbol 147.045+ 1788369328 147.045MHz T103 +060 Net Thu 8:30pm Map
Symbol DL6UM-12 1788369328 Test MeshCom#Gateway/B=100 Map
Symbol DM0WR-9 1788369328 LoRa iGate 433.775 MHz JO51JT Map
Symbol CQ0DMS 1788369328 MMDVM 438.2750/430.6750 CC1 Map
Symbol JH1BLT-12 1788369328 BlueDV radio 20260710 Map
Symbol VK4VAG-10 1788369328 LoRa iGATE & Digi - 433.775MHz Map
Symbol M0BPQ-2 1788369328 LoRa APRS Map
Symbol TB2JFO 1788369328 Op. mer Furkan AKSOY 73! +90 (532) 447 07 94 Map
Symbol KH6DH-13 1788369328 TU2k Map
Symbol VE3RXR-C 1788369328 2m Voice 145.310 -0.600 MHz Map
Symbol PP2MTM-15 1788369328 @MUTUM APRS DIGI - Barro Alto-GO Map
Symbol PI1DHR B 1788369328 440 Voice 438.26250MHz -7.6000MHz Map
Symbol TA7MK 1788369328 Op. Mahmut KKMEHMETOLU 73! +90 (535) 652 57 92 Map
Symbol TA7BRS-1 1788369328 Op. Bar BK 73! +90 (537) 356 68 59 Map
Symbol SP6IGO 1788369328 Jacek 145.500Mhz 433,500Mhz Map
Symbol DC7JZB-12 1788369328 Lora iGate - D22 P=4.37V Map
Symbol IR3ZWD-B 1788369328 70cm Voice (D-Star) 433.08750MHz -1.6000MHz Map
Symbol VA3EOD 1788369328 **Emergency Operation Dryden** Map
Symbol N5CNB 1788369328 .DSWLL Map
Symbol PI1DHR-B 1788369328 440 Voice 438.26250MHz -7.6000MHz Map
Symbol DL0RMC-1 1788369328 DAS Rundfunkmuseum * Sonntag 14 - 17 Uhr * LoRa iGATE Map
Symbol KB9RBL B 1788369328 70cm Voice (D-Star) 444.15000MHz +5.0000MHz Map
Symbol DF5HRN-13 1788369328 JN68NV / Kirchberg im Wald Map
Symbol HP1AVS-R1 1788369328 439.650MHz TOFF - C4FM - CERRO CAMPANA - 25 WATTS Map
Symbol DL1XD-10 1788369328 LoRa APRS iGate 433.775 Map
Symbol PY2AMW 1788369328 Map
Symbol SV8BUR-10 1788369328 LoRa APRS Map
Symbol CQ1DBE 1788369328 MMDVM 438.2000/430.6000 CC1 Map
Symbol SQ6ROL 1788369328 SQ6ROL QRG 144.525MHz. http://qrz.com/db/sq6rol Map
Symbol JH5JKH-3 1788369328 144.66MHz 1200bps Geisei digi Map
Symbol IZ1HMT-1 1788369328 iGate LoRa APRS E.R.A. Imperia | TTGO batt:3.58V Map
Symbol DO0HA B 1788369328 70cm Voice (D-Star) 438.41250MHz -7.6000MHz Map
Symbol DB0DBN-B 1788369328 70cm Voice (D-Star) 439.53125MHz -7.6000MHz Map
Symbol F6IPG-10 1788369328 LoRa APRS Map
Symbol DB0TGO-13 1788369328 [DWD 2026.09.02T16:50z] Start 2026-07-19 Map
Symbol SR2IN-R 1788369328 70cm MMDVM Voice (C4FM) 438.23750MHz -7.6000MHz, SR2IN_Pi-Star_RPT Map
Symbol KR4AOM B 1788369328 440 Voice 444.725 +5.00 MHz Map
Symbol CQ0DCSC 1788369328 M27QPR9JA7AN 438.4750/430.8750 CC1 Map
Symbol WA4RQD-N 1788369328 70cm MMDVM Voice (C4FM) 436.00000MHz +0.0000MHz, WA4RQD_Pi-Star_ND Map
Symbol DG8OB-14 1788369328 LoRa APRS igate by CA2RXU (433.775 MHz) RX only Map
Symbol K4GFD-8 1788369328 APRSISCE/32 Map
Symbol W5PAA-B 1788369328 440 Voice 444.925 +5.00 MHz Map
Symbol EA4JM-10 1788369328 LoRa APRS ea4jm Batt=4.26V Map
Symbol DL2FH-12 1788369328 B=100 Map
Symbol RL3A 1788369328 RL3A FRN Node Regions | 145.225 #127.3 | More info: digital.hamcom.ru Map
Symbol HB9CCS-10 1788369328 LoRa APRS iGate Glarus JN47MA Map
Symbol G0BUS-7 1788369328 Mootorola R7 on BMW GS 1.3 ADV Map
Symbol OM1ATS-10 1788369328 LoRa APRS iGate Map
Symbol TA7BRS 1788369328 Op. Bar BK 73! +90 (537) 356 68 59 Map